Perkins Township, Maine
Current Conditions -  °F | °C
As of 2:09 PM on Monday 20 Oct 2014 (Local Time) from KAUG Reporting Station
Scattered Clouds Scattered Clouds  
Wind Chill: 50°   Ceiling: Unl
Heat Index: 50°   Visibility: 10mi
Dew Point: 23°   Wind: 7mph
Humidity: 35%   Direction: 250°WSW
Pressure: 29.91"   Gusts: NA
Location:  44.5915°N, 70.2983°W
Report Text: KAUG 201809Z AUTO 25006KT 10SM SCT100 10/M05 A2991 RMK AO2 T01001050
Loading
Personal Weather Stations






























Interactive Weather Map
Tropical Storm Tracking
New forecast layout! Learn more

10-Day Weather Forecast

Advertisements
Track Severe Weather on mobile